Time;durP1;ratioP1;P1;durP2;ratioP2;P2;SDS_P1;SDS_P2;PMS_P1;PMS_P2;Temp;Humidity;BMP_temperature;BMP_pressure;BME280_temperature;BME280_humidity;BME280_pressure;Samples;Min_cycle;Max_cycle;Signal;HPM_P1;HPM_P2
2022/09/04 00:02:24;;;;;;;1.70;1.53;;;19.00;94.50;;;;;;5110632;28;20222;-68
2022/09/04 00:05:00;;;;;;;1.40;1.40;;;19.00;94.40;;;;;;5111694;28;20570;-68
2022/09/04 00:07:33;;;;;;;2.87;1.67;;;18.90;94.40;;;;;;5111850;28;20563;-68
2022/09/04 00:10:11;;;;;;;3.03;1.63;;;18.90;94.50;;;;;;5111850;28;20241;-68
2022/09/04 00:12:45;;;;;;;5.23;1.60;;;18.90;94.60;;;;;;5111780;28;20194;-68
2022/09/04 00:15:14;;;;;;;2.93;1.50;;;18.90;94.50;;;;;;5107543;28;20187;-68
2022/09/04 00:17:48;;;;;;;2.60;1.30;;;18.90;94.50;;;;;;5093362;28;20202;-68
2022/09/04 00:20:30;;;;;;;3.43;1.60;;;18.90;94.50;;;;;;5111618;28;20198;-68
2022/09/04 00:23:04;;;;;;;2.90;1.67;;;18.90;94.70;;;;;;5111952;28;20288;-68
2022/09/04 00:25:39;;;;;;;4.13;2.10;;;18.90;94.80;;;;;;5111479;28;20208;-68
2022/09/04 00:28:15;;;;;;;3.17;1.50;;;18.80;94.70;;;;;;5111740;28;20198;-68
2022/09/04 00:30:49;;;;;;;1.83;1.70;;;18.80;94.90;;;;;;5109560;28;20227;-69
2022/09/04 00:33:23;;;;;;;2.73;1.47;;;18.70;95.00;;;;;;5100103;28;20291;-70
2022/09/04 00:35:55;;;;;;;1.60;1.50;;;18.70;95.10;;;;;;5111402;28;20205;-71
2022/09/04 00:38:34;;;;;;;2.37;1.33;;;18.70;95.20;;;;;;5105474;28;20211;-70
2022/09/04 00:41:11;;;;;;;4.40;1.63;;;18.70;95.30;;;;;;5090819;28;20197;-70
2022/09/04 00:44:23;;;;;;;3.20;1.70;;;18.70;95.30;;;;;;5091115;28;20197;-69
2022/09/04 00:47:02;;;;;;;2.10;1.60;;;18.70;95.30;;;;;;5064645;28;20206;-69
2022/09/04 00:49:46;;;;;;;2.57;1.70;;;18.70;95.30;;;;;;5110869;28;20566;-69
2022/09/04 00:52:25;;;;;;;2.40;1.67;;;18.80;95.30;;;;;;5110187;28;20230;-69
2022/09/04 00:55:05;;;;;;;1.97;1.73;;;18.70;95.40;;;;;;5108752;28;20202;-69
2022/09/04 00:57:59;;;;;;;2.10;1.90;;;18.70;95.50;;;;;;5105228;28;20186;-67
2022/09/04 01:00:27;;;;;;;2.23;1.60;;;18.60;95.40;;;;;;5062109;28;20214;-69
2022/09/04 01:03:23;;;;;;;2.70;1.47;;;18.60;95.60;;;;;;5089128;28;20214;-67
2022/09/04 01:06:15;;;;;;;2.37;1.90;;;18.60;95.60;;;;;;5088936;28;20582;-67
2022/09/04 01:09:02;;;;;;;6.37;1.60;;;18.50;95.70;;;;;;5089154;28;20194;-67
2022/09/04 01:11:40;;;;;;;5.27;1.60;;;18.50;95.90;;;;;;5086675;28;20723;-67
2022/09/04 01:14:15;;;;;;;3.93;1.60;;;18.50;96.30;;;;;;5092031;28;20205;-67
2022/09/04 01:16:47;;;;;;;3.53;1.73;;;18.50;96.00;;;;;;5109252;28;20190;-67
2022/09/04 01:19:35;;;;;;;2.20;1.40;;;18.50;96.00;;;;;;5109049;28;20648;-67
2022/09/04 01:22:28;;;;;;;2.40;1.73;;;18.50;95.90;;;;;;5109187;28;20218;-67
2022/09/04 01:25:08;;;;;;;1.80;1.70;;;18.50;95.90;;;;;;5094596;28;20255;-68
2022/09/04 01:27:45;;;;;;;1.63;1.50;;;18.50;96.10;;;;;;5088883;28;20191;-67
2022/09/04 01:30:16;;;;;;;3.90;1.90;;;18.50;96.10;;;;;;5103273;28;20218;-68
2022/09/04 01:32:51;;;;;;;2.20;1.57;;;18.40;96.20;;;;;;5108839;28;20202;-70
2022/09/04 01:35:27;;;;;;;2.27;1.40;;;18.40;96.20;;;;;;5109115;28;20194;-67
2022/09/04 01:38:07;;;;;;;3.67;1.80;;;18.40;96.20;;;;;;5108764;28;20555;-69
2022/09/04 01:40:40;;;;;;;4.80;1.40;;;18.30;96.30;;;;;;5088696;28;20194;-69
2022/09/04 01:43:11;;;;;;;3.57;1.40;;;18.30;96.40;;;;;;5088921;28;20195;-68
2022/09/04 01:45:56;;;;;;;1.50;1.40;;;18.30;96.30;;;;;;5091525;28;20190;-67
2022/09/04 01:48:31;;;;;;;1.57;1.40;;;18.30;96.40;;;;;;5108050;28;20190;-68
2022/09/04 01:53:50;;;;;;;2.73;1.60;;;18.20;96.30;;;;;;5084959;27;20567;-68
2022/09/04 01:56:25;;;;;;;4.00;1.40;;;18.20;96.20;;;;;;5084969;28;20187;-68
2022/09/04 01:58:56;;;;;;;1.97;1.40;;;18.20;96.30;;;;;;5078538;28;20196;-68
2022/09/04 02:01:31;;;;;;;1.83;1.60;;;18.20;96.20;;;;;;5064510;28;20231;-68
2022/09/04 02:04:08;;;;;;;1.73;1.63;;;18.20;96.30;;;;;;5064695;28;20193;-68
2022/09/04 02:06:43;;;;;;;9.67;2.07;;;18.20;96.30;;;;;;5064368;28;20633;-68
2022/09/04 02:09:25;;;;;;;1.50;1.40;;;18.20;96.30;;;;;;5061871;28;20291;-68
2022/09/04 02:12:03;;;;;;;1.63;1.47;;;18.10;96.40;;;;;;5064675;28;20215;-67
2022/09/04 02:14:38;;;;;;;1.50;1.40;;;18.10;96.30;;;;;;5064715;28;20562;-67
2022/09/04 02:17:10;;;;;;;3.07;1.50;;;18.10;96.50;;;;;;5063705;28;20192;-67
2022/09/04 02:19:48;;;;;;;3.07;1.50;;;18.10;96.40;;;;;;5064212;28;20670;-69
2022/09/04 02:22:26;;;;;;;4.07;1.40;;;18.10;96.50;;;;;;5044524;28;20203;-68
2022/09/04 02:25:03;;;;;;;1.57;1.47;;;18.00;96.40;;;;;;5060918;28;20195;-68
2022/09/04 02:27:39;;;;;;;1.83;1.73;;;18.00;96.40;;;;;;5065153;28;20578;-68
2022/09/04 02:30:09;;;;;;;1.97;1.70;;;18.00;96.40;;;;;;5070495;28;20210;-68
2022/09/04 02:32:41;;;;;;;2.20;1.40;;;18.00;96.40;;;;;;5063348;28;20228;-68
2022/09/04 02:35:16;;;;;;;2.17;1.40;;;17.90;96.50;;;;;;5064166;28;20284;-68
2022/09/04 02:37:55;;;;;;;3.20;1.50;;;17.90;96.70;;;;;;5064190;28;20198;-68
2022/09/04 02:40:32;;;;;;;4.33;1.40;;;17.90;96.60;;;;;;5063790;28;20187;-67
2022/09/04 02:43:15;;;;;;;2.17;1.50;;;17.90;96.50;;;;;;5064112;28;20217;-68
2022/09/04 02:45:47;;;;;;;1.33;1.23;;;17.80;96.60;;;;;;5064077;28;20200;-68
2022/09/04 02:48:19;;;;;;;2.63;1.63;;;17.80;96.70;;;;;;5063459;28;20199;-68
2022/09/04 02:51:01;;;;;;;1.87;1.20;;;17.80;96.60;;;;;;5062925;28;20202;-67
2022/09/04 02:53:35;;;;;;;1.60;1.50;;;17.80;96.70;;;;;;5063255;28;20239;-68
2022/09/04 02:56:25;;;;;;;1.43;1.33;;;17.80;96.70;;;;;;5063092;28;20656;-68
2022/09/04 02:59:06;;;;;;;1.93;1.30;;;17.80;96.70;;;;;;5063694;28;20276;-68
2022/09/04 03:01:42;;;;;;;2.80;1.30;;;17.80;96.80;;;;;;5062944;28;20228;-68
2022/09/04 03:04:15;;;;;;;1.67;1.53;;;17.80;96.70;;;;;;5036544;28;20204;-68
2022/09/04 03:06:50;;;;;;;1.93;1.40;;;17.80;96.80;;;;;;5050143;28;20207;-68
2022/09/04 03:09:24;;;;;;;2.67;1.47;;;17.80;96.70;;;;;;5050211;28;20188;-68
2022/09/04 03:11:59;;;;;;;3.33;1.50;;;17.80;96.80;;;;;;5049947;28;20192;-68
2022/09/04 03:14:33;;;;;;;2.07;1.40;;;17.80;96.70;;;;;;5050091;28;20222;-68
2022/09/04 03:17:08;;;;;;;2.77;1.40;;;17.70;96.70;;;;;;5049916;28;20196;-68
2022/09/04 03:19:40;;;;;;;1.80;1.37;;;17.70;96.60;;;;;;5049298;28;20203;-68
2022/09/04 03:22:14;;;;;;;1.57;1.30;;;17.70;96.50;;;;;;5039333;28;20200;-68
2022/09/04 03:25:00;;;;;;;3.10;1.77;;;17.70;96.50;;;;;;5062161;28;20980;-68
2022/09/04 03:27:31;;;;;;;1.50;1.40;;;17.70;96.50;;;;;;5034660;28;20192;-68
2022/09/04 03:30:04;;;;;;;1.83;1.40;;;17.70;96.50;;;;;;5050013;28;20232;-68
2022/09/04 03:32:38;;;;;;;1.77;1.40;;;17.70;96.60;;;;;;5049788;28;20224;-68
2022/09/04 03:35:13;;;;;;;1.53;1.40;;;17.70;96.60;;;;;;5049638;28;20198;-68
2022/09/04 03:38:00;;;;;;;1.70;1.60;;;17.70;96.70;;;;;;5030770;28;20205;-67
2022/09/04 03:40:37;;;;;;;1.50;1.40;;;17.70;96.70;;;;;;5049293;28;20232;-68
2022/09/04 03:43:25;;;;;;;1.97;1.70;;;17.60;96.90;;;;;;5044946;28;20616;-68
2022/09/04 03:46:00;;;;;;;2.20;1.53;;;17.50;97.00;;;;;;5031977;28;20288;-68
2022/09/04 03:48:46;;;;;;;1.77;1.37;;;17.50;97.00;;;;;;5029617;28;20200;-69
2022/09/04 03:51:24;;;;;;;1.43;1.30;;;17.50;97.10;;;;;;5029435;28;20247;-68
2022/09/04 03:54:00;;;;;;;2.17;1.50;;;17.40;97.20;;;;;;5048057;28;20218;-68
2022/09/04 03:56:48;;;;;;;1.40;1.30;;;17.50;97.30;;;;;;5060880;28;20189;-68
2022/09/04 03:59:33;;;;;;;4.73;1.47;;;17.50;97.20;;;;;;5049062;28;20200;-68
2022/09/04 04:02:07;;;;;;;4.40;1.60;;;17.50;97.20;;;;;;5049041;28;20719;-68
2022/09/04 04:05:22;;;;;;;1.63;1.53;;;17.40;97.30;;;;;;5048838;28;20670;-68
2022/09/04 04:08:18;;;;;;;1.20;1.20;;;17.40;97.30;;;;;;4986953;28;20233;-68
2022/09/04 04:10:56;;;;;;;1.90;1.43;;;17.30;97.30;;;;;;5032738;28;20196;-68
2022/09/04 04:13:55;;;;;;;3.70;1.30;;;17.30;97.50;;;;;;5048846;28;20227;-68
2022/09/04 04:16:39;;;;;;;1.80;1.47;;;17.20;97.50;;;;;;5021272;28;20686;-68
2022/09/04 04:19:26;;;;;;;1.43;1.33;;;17.20;97.50;;;;;;5039193;28;20200;-69
2022/09/04 04:22:08;;;;;;;1.50;1.40;;;17.20;97.60;;;;;;5056228;28;20230;-69
2022/09/04 04:24:56;;;;;;;2.63;1.40;;;17.20;97.50;;;;;;5060368;28;20207;-68
2022/09/04 04:27:45;;;;;;;2.67;1.47;;;17.20;97.50;;;;;;5051252;28;20201;-69
2022/09/04 04:30:15;;;;;;;4.10;1.57;;;17.20;97.30;;;;;;5028590;28;20193;-69
2022/09/04 04:32:59;;;;;;;1.83;1.10;;;17.20;97.30;;;;;;5043949;28;20232;-69
2022/09/04 04:35:31;;;;;;;2.30;1.43;;;17.20;97.30;;;;;;5048739;28;20200;-69
2022/09/04 04:38:12;;;;;;;3.20;1.60;;;17.20;97.30;;;;;;5048429;28;20753;-69
2022/09/04 04:41:08;;;;;;;1.50;1.40;;;17.20;97.30;;;;;;5028507;28;20200;-69
2022/09/04 04:43:49;;;;;;;1.60;1.27;;;17.20;97.40;;;;;;5031233;28;20193;-69
2022/09/04 04:46:24;;;;;;;1.50;1.37;;;17.20;97.40;;;;;;5048209;28;20199;-69
2022/09/04 04:49:07;;;;;;;1.50;1.40;;;17.10;97.40;;;;;;5048540;28;20196;-69
2022/09/04 04:52:02;;;;;;;3.10;1.43;;;17.20;97.40;;;;;;5048189;28;20202;-69
2022/09/04 04:54:46;;;;;;;6.00;1.50;;;17.20;97.20;;;;;;5059149;28;20237;-69
2022/09/04 04:57:25;;;;;;;3.53;1.43;;;17.20;97.20;;;;;;5062442;28;20773;-69
2022/09/04 05:00:05;;;;;;;1.40;1.30;;;17.20;97.30;;;;;;5048111;28;20200;-69
2022/09/04 05:02:39;;;;;;;2.97;1.30;;;17.10;97.30;;;;;;5030545;28;20192;-68
2022/09/04 05:05:13;;;;;;;2.30;1.33;;;17.10;97.40;;;;;;5028213;28;20189;-68
2022/09/04 05:07:49;;;;;;;2.30;1.40;;;17.10;97.30;;;;;;5028159;28;20199;-68
2022/09/04 05:10:23;;;;;;;1.50;1.40;;;17.00;97.40;;;;;;5027796;28;20243;-68
2022/09/04 05:13:11;;;;;;;4.67;1.40;;;16.90;97.60;;;;;;5033106;28;20218;-68
2022/09/04 05:15:44;;;;;;;1.53;1.43;;;16.90;97.70;;;;;;5047398;28;20690;-69
2022/09/04 05:18:20;;;;;;;1.43;1.07;;;16.80;97.70;;;;;;5053438;28;20211;-68
2022/09/04 05:20:55;;;;;;;1.40;1.30;;;16.90;97.90;;;;;;5047732;28;20210;-68
2022/09/04 05:23:31;;;;;;;1.30;1.20;;;16.90;97.80;;;;;;5049412;28;20198;-68
2022/09/04 05:26:06;;;;;;;2.53;1.50;;;16.90;97.70;;;;;;5067477;28;20615;-68
2022/09/04 05:28:40;;;;;;;2.30;1.50;;;16.90;97.80;;;;;;5067733;28;20199;-68
2022/09/04 05:31:19;;;;;;;5.43;1.47;;;17.00;97.80;;;;;;5067501;28;20213;-68
2022/09/04 05:33:57;;;;;;;1.40;1.30;;;16.90;97.80;;;;;;5067578;28;20223;-69
2022/09/04 05:36:35;;;;;;;2.17;1.20;;;17.00;97.80;;;;;;5036558;28;20197;-68
2022/09/04 05:39:09;;;;;;;3.10;1.20;;;16.90;97.90;;;;;;5035112;28;20313;-68
2022/09/04 05:41:43;;;;;;;1.53;1.23;;;17.00;98.00;;;;;;5047341;28;20303;-68
2022/09/04 05:44:30;;;;;;;1.57;1.47;;;17.00;97.90;;;;;;5036739;28;20201;-68
2022/09/04 05:47:09;;;;;;;3.83;1.67;;;17.00;98.00;;;;;;5027506;28;20284;-68
2022/09/04 05:50:01;;;;;;;2.93;1.40;;;17.10;97.80;;;;;;5027606;28;20641;-68
2022/09/04 05:52:55;;;;;;;1.30;1.30;;;17.20;97.80;;;;;;5034696;28;20259;-69
2022/09/04 05:55:40;;;;;;;1.30;1.30;;;17.20;97.70;;;;;;5060331;28;20207;-68
2022/09/04 05:58:29;;;;;;;2.70;1.33;;;17.20;97.50;;;;;;5047207;28;20196;-68
2022/09/04 06:01:08;;;;;;;1.47;1.37;;;17.20;97.60;;;;;;5046925;28;20724;-70
2022/09/04 06:04:16;;;;;;;1.60;1.50;;;17.30;97.70;;;;;;5047421;28;20210;-69
2022/09/04 06:06:53;;;;;;;1.57;1.47;;;17.40;97.90;;;;;;5046855;28;20196;-68
2022/09/04 06:09:28;;;;;;;2.23;1.60;;;17.50;98.20;;;;;;5040555;28;20189;-68
2022/09/04 06:12:09;;;;;;;3.57;1.53;;;17.50;98.00;;;;;;5045088;28;20684;-70
2022/09/04 06:14:59;;;;;;;2.03;1.40;;;17.50;98.10;;;;;;5056215;28;20226;-68
2022/09/04 06:17:38;;;;;;;1.93;1.63;;;17.60;97.90;;;;;;5033964;28;20208;-68
2022/09/04 06:20:32;;;;;;;1.87;1.70;;;17.50;97.90;;;;;;5047283;28;20666;-68
2022/09/04 06:23:31;;;;;;;4.63;1.77;;;17.50;98.10;;;;;;5047167;28;20200;-68
2022/09/04 06:26:35;;;;;;;2.47;1.67;;;17.50;98.00;;;;;;5017960;28;20662;-68
2022/09/04 06:29:14;;;;;;;3.47;1.93;;;17.50;98.00;;;;;;5046693;28;20202;-68
2022/09/04 06:32:20;;;;;;;1.67;1.57;;;17.50;98.20;;;;;;5046920;28;20200;-67
2022/09/04 06:35:11;;;;;;;4.93;1.87;;;17.50;98.20;;;;;;5047181;28;20319;-68
2022/09/04 06:37:50;;;;;;;1.87;1.77;;;17.50;98.20;;;;;;5046884;28;20196;-68
2022/09/04 06:40:35;;;;;;;2.10;1.70;;;17.50;98.40;;;;;;5048142;28;20191;-68
2022/09/04 06:43:12;;;;;;;2.70;1.70;;;17.50;98.60;;;;;;5049866;28;20679;-68
2022/09/04 06:45:52;;;;;;;2.20;2.00;;;17.50;98.90;;;;;;5050665;28;20590;-68
2022/09/04 06:48:32;;;;;;;2.17;2.00;;;17.50;98.80;;;;;;5049906;28;20631;-68
2022/09/04 06:51:07;;;;;;;5.00;2.00;;;17.60;98.80;;;;;;5050636;28;20215;-68
2022/09/04 06:53:42;;;;;;;2.27;2.07;;;17.60;98.90;;;;;;5053263;28;20241;-68
2022/09/04 06:56:29;;;;;;;2.33;2.03;;;17.60;99.00;;;;;;5070440;28;20213;-68
2022/09/04 06:59:31;;;;;;;1.73;1.63;;;17.70;99.10;;;;;;5070774;28;20187;-68
2022/09/04 07:02:12;;;;;;;2.17;1.97;;;17.70;99.40;;;;;;5029956;28;20711;-68
2022/09/04 07:04:53;;;;;;;2.57;2.03;;;17.80;99.40;;;;;;5030285;28;20258;-68
2022/09/04 07:07:36;;;;;;;2.33;2.00;;;17.80;99.30;;;;;;5041471;28;20211;-68
2022/09/04 07:10:08;;;;;;;5.60;1.97;;;17.90;99.30;;;;;;5049650;28;20643;-68
2022/09/04 07:13:13;;;;;;;2.90;2.10;;;18.00;99.40;;;;;;5050218;28;20201;-68
2022/09/04 07:16:09;;;;;;;4.47;2.13;;;18.00;99.40;;;;;;5049907;28;20203;-68
2022/09/04 07:18:54;;;;;;;2.20;2.00;;;18.00;99.30;;;;;;5015271;28;20204;-68
2022/09/04 07:21:30;;;;;;;4.10;2.40;;;18.00;99.30;;;;;;5049877;28;20679;-68
2022/09/04 07:24:02;;;;;;;2.93;2.10;;;18.10;99.40;;;;;;5056235;28;20211;-68
2022/09/04 07:26:36;;;;;;;2.23;1.83;;;18.10;99.50;;;;;;5053896;28;20204;-68
2022/09/04 07:29:11;;;;;;;3.43;2.03;;;18.10;99.50;;;;;;5031007;28;20199;-68
2022/09/04 07:31:45;;;;;;;3.13;2.20;;;18.20;99.60;;;;;;5045000;28;20404;-67
2022/09/04 07:34:18;;;;;;;2.60;2.40;;;18.30;99.70;;;;;;5049901;28;20220;-67
2022/09/04 07:36:53;;;;;;;2.10;1.90;;;18.30;99.60;;;;;;5049839;28;20196;-67
2022/09/04 07:39:28;;;;;;;2.07;1.83;;;18.40;99.80;;;;;;5031100;28;20227;-67
2022/09/04 07:42:04;;;;;;;2.33;2.23;;;18.50;99.90;;;;;;5046447;28;20218;-67
2022/09/04 07:44:41;;;;;;;3.67;2.33;;;18.50;99.90;;;;;;5047880;28;20290;-67
2022/09/04 07:47:15;;;;;;;2.70;2.07;;;18.60;99.90;;;;;;5047942;28;20204;-67
2022/09/04 07:49:52;;;;;;;5.27;2.30;;;18.70;99.80;;;;;;5034581;28;20211;-67
2022/09/04 07:52:38;;;;;;;3.37;2.50;;;18.70;99.90;;;;;;5047293;28;20718;-67
2022/09/04 07:55:15;;;;;;;2.03;1.83;;;18.80;99.70;;;;;;5063104;28;20233;-67
2022/09/04 07:58:12;;;;;;;2.60;2.30;;;18.80;99.50;;;;;;5048488;28;20285;-67
2022/09/04 08:00:51;;;;;;;2.70;2.50;;;18.90;99.90;;;;;;5027536;28;20237;-67
2022/09/04 08:03:51;;;;;;;7.20;3.00;;;19.00;99.90;;;;;;5035996;28;20199;-67
2022/09/04 08:06:24;;;;;;;2.97;2.30;;;19.10;99.90;;;;;;5047105;28;20218;-67
2022/09/04 08:09:12;;;;;;;3.50;2.30;;;19.20;99.90;;;;;;5046720;28;20686;-69
2022/09/04 08:11:59;;;;;;;2.10;1.93;;;19.20;99.90;;;;;;5046651;28;20662;-67
2022/09/04 08:14:38;;;;;;;2.27;2.17;;;19.40;99.90;;;;;;5046668;28;20228;-67
2022/09/04 08:17:41;;;;;;;4.00;2.47;;;19.40;99.90;;;;;;5042992;28;20189;-67
2022/09/04 08:20:27;;;;;;;2.33;2.23;;;19.50;99.90;;;;;;5031393;28;20208;-67
2022/09/04 08:23:02;;;;;;;6.17;2.30;;;19.60;99.90;;;;;;5047554;28;20647;-67
2022/09/04 08:25:43;;;;;;;5.33;2.50;;;19.70;99.90;;;;;;5066755;28;20246;-67
2022/09/04 08:28:23;;;;;;;3.97;2.63;;;19.70;99.90;;;;;;5067057;28;20670;-67
2022/09/04 08:30:55;;;;;;;3.42;2.25;;;19.80;99.80;;;;;;5064415;28;20208;-67
2022/09/04 08:34:02;;;;;;;3.27;2.60;;;19.90;99.80;;;;;;5040756;28;20320;-67
2022/09/04 08:36:39;;;;;;;4.43;2.75;;;19.90;99.50;;;;;;5039210;28;20208;-67
2022/09/04 08:39:09;;;;;;;3.13;2.33;;;20.00;99.80;;;;;;5048136;28;20698;-67
2022/09/04 08:42:19;;;;;;;2.33;2.20;;;20.10;99.90;;;;;;5048237;28;20670;-67
2022/09/04 08:45:21;;;;;;;2.70;2.50;;;20.20;99.40;;;;;;5048208;28;20208;-67
2022/09/04 08:48:09;;;;;;;3.43;2.40;;;20.20;99.10;;;;;;5045824;28;20658;-67
2022/09/04 08:51:16;;;;;;;2.65;2.45;;;20.30;99.80;;;;;;5028309;28;20216;-68
2022/09/04 08:54:30;;;;;;;2.15;1.90;;;20.40;99.80;;;;;;5015186;28;20231;-68
2022/09/04 08:57:17;;;;;;;2.78;2.58;;;20.50;99.20;;;;;;5017522;28;20214;-67
2022/09/04 09:00:07;;;;;;;2.58;2.38;;;20.50;98.80;;;;;;5048044;28;20717;-67
2022/09/04 09:03:07;;;;;;;5.93;2.70;;;20.60;98.90;;;;;;5047614;28;20235;-67
2022/09/04 09:06:09;;;;;;;2.40;2.20;;;20.70;98.90;;;;;;5028352;28;20197;-68
2022/09/04 09:09:14;;;;;;;2.78;2.50;;;20.80;98.60;;;;;;5028380;28;20287;-68
2022/09/04 09:12:23;;;;;;;2.40;2.20;;;20.80;99.20;;;;;;5018700;28;20209;-67
2022/09/04 09:15:19;;;;;;;3.95;2.25;;;21.00;98.70;;;;;;5027890;28;20220;-68
2022/09/04 09:18:01;;;;;;;2.00;1.90;;;20.90;98.00;;;;;;5028072;28;20192;-68
2022/09/04 09:20:29;;;;;;;2.95;2.30;;;21.00;97.90;;;;;;5034730;28;20219;-68
2022/09/04 09:23:19;;;;;;;3.67;2.45;;;21.00;97.90;;;;;;5045775;28;20210;-68
2022/09/04 09:26:08;;;;;;;2.60;2.40;;;21.00;98.00;;;;;;5027563;28;20197;-68
2022/09/04 09:29:15;;;;;;;3.00;2.40;;;21.10;98.70;;;;;;5027918;28;20196;-68
2022/09/04 09:32:27;;;;;;;2.38;2.20;;;21.20;97.80;;;;;;5010225;28;20204;-68
2022/09/04 09:35:29;;;;;;;2.40;2.30;;;21.20;97.70;;;;;;5027349;28;20237;-68
2022/09/04 09:38:24;;;;;;;3.97;2.42;;;21.30;97.70;;;;;;5038192;28;20192;-67
2022/09/04 09:41:11;;;;;;;2.28;2.17;;;21.30;97.70;;;;;;5047353;28;20192;-68
2022/09/04 09:44:15;;;;;;;2.33;2.10;;;21.50;98.00;;;;;;5047836;28;20222;-67
2022/09/04 09:47:29;;;;;;;2.60;2.13;;;21.60;97.70;;;;;;5015744;28;20214;-67
2022/09/04 09:50:23;;;;;;;2.47;2.05;;;21.60;97.40;;;;;;5047460;28;20214;-67
2022/09/04 09:53:25;;;;;;;3.60;1.98;;;21.70;97.90;;;;;;5047033;28;20265;-67
2022/09/04 09:56:16;;;;;;;2.08;1.98;;;21.80;97.40;;;;;;5031884;28;20222;-67
2022/09/04 09:59:09;;;;;;;2.22;1.83;;;21.80;97.10;;;;;;5047267;28;20211;-67
2022/09/04 10:02:15;;;;;;;1.80;1.70;;;21.90;97.20;;;;;;5047145;28;20258;-67
2022/09/04 10:05:12;;;;;;;1.85;1.75;;;22.00;97.50;;;;;;5019532;28;20204;-67
2022/09/04 10:08:11;;;;;;;2.47;2.28;;;22.10;97.50;;;;;;5021135;28;20204;-67
2022/09/04 10:10:58;;;;;;;2.25;2.08;;;22.20;97.00;;;;;;5023905;28;20232;-68
2022/09/04 10:13:43;;;;;;;2.90;2.30;;;22.40;97.00;;;;;;5027350;28;20200;-68
2022/09/04 10:16:57;;;;;;;2.97;1.77;;;22.50;97.10;;;;;;5031119;28;20215;-68
2022/09/04 10:20:09;;;;;;;2.90;2.00;;;22.60;96.10;;;;;;5030997;28;20212;-68
2022/09/04 10:23:08;;;;;;;1.88;1.77;;;22.70;96.70;;;;;;4992292;28;20905;-68
2022/09/04 10:25:53;;;;;;;2.13;1.90;;;22.70;96.10;;;;;;5039214;28;20211;-68
2022/09/04 10:28:39;;;;;;;1.77;1.67;;;22.70;94.70;;;;;;5050944;28;20200;-68
2022/09/04 10:31:28;;;;;;;1.90;1.80;;;22.80;95.00;;;;;;5050370;28;20188;-68
2022/09/04 10:34:07;;;;;;;2.10;1.88;;;22.80;94.50;;;;;;5050992;28;20193;-68
2022/09/04 10:36:40;;;;;;;1.90;1.80;;;22.90;94.50;;;;;;5033771;28;20193;-68
2022/09/04 10:42:19;;;;;;;3.28;1.92;;;22.90;94.10;;;;;;5034573;28;20216;-68
2022/09/04 10:45:10;;;;;;;2.70;1.95;;;23.00;94.60;;;;;;5050759;28;20200;-68
2022/09/04 10:48:06;;;;;;;3.65;2.13;;;23.00;94.00;;;;;;5048171;28;20222;-68
2022/09/04 10:51:14;;;;;;;2.25;1.98;;;23.10;94.50;;;;;;5050884;28;20208;-68
2022/09/04 10:54:13;;;;;;;2.05;1.95;;;23.20;94.60;;;;;;5038844;28;20574;-68
2022/09/04 10:56:54;;;;;;;3.15;1.83;;;23.40;94.90;;;;;;5054369;28;20200;-68
2022/09/04 10:59:43;;;;;;;2.65;1.88;;;23.50;94.70;;;;;;5049533;28;20192;-68
2022/09/04 11:02:48;;;;;;;2.35;2.10;;;23.60;94.80;;;;;;5050140;28;20196;-68
2022/09/04 11:05:49;;;;;;;2.10;2.00;;;23.80;94.70;;;;;;5050396;28;20199;-69
2022/09/04 11:08:43;;;;;;;2.10;2.00;;;24.00;94.70;;;;;;5041036;28;20201;-68
2022/09/04 11:11:33;;;;;;;2.08;1.98;;;24.10;94.10;;;;;;5030278;28;20207;-68
2022/09/04 11:14:14;;;;;;;3.00;2.17;;;24.30;94.20;;;;;;5030463;28;20200;-68
2022/09/04 11:17:14;;;;;;;2.47;2.13;;;24.40;94.20;;;;;;5033976;28;20224;-67
2022/09/04 11:20:12;;;;;;;2.03;1.90;;;24.50;93.30;;;;;;5050004;28;20555;-68
2022/09/04 11:23:07;;;;;;;4.43;2.00;;;24.50;93.40;;;;;;5049734;28;20194;-68
2022/09/04 11:26:23;;;;;;;2.70;1.85;;;24.60;93.40;;;;;;5049717;28;20236;-68
2022/09/04 11:29:29;;;;;;;2.42;2.03;;;24.60;93.40;;;;;;4987960;28;20272;-68
2022/09/04 11:32:21;;;;;;;1.85;1.75;;;24.70;93.60;;;;;;5049066;28;20200;-68
2022/09/04 11:35:28;;;;;;;2.20;2.03;;;24.80;92.80;;;;;;5040020;28;20319;-69
2022/09/04 11:38:03;;;;;;;2.92;2.35;;;24.80;93.30;;;;;;5030470;28;20208;-68
2022/09/04 11:41:09;;;;;;;4.07;2.00;;;24.80;93.40;;;;;;5029780;28;20198;-69
2022/09/04 11:44:13;;;;;;;2.13;2.03;;;25.00;93.50;;;;;;5029956;28;20201;-68
2022/09/04 11:47:15;;;;;;;3.92;2.20;;;25.10;92.90;;;;;;5029699;28;20193;-68
2022/09/04 11:49:57;;;;;;;2.28;2.00;;;25.10;92.90;;;;;;5017515;28;20210;-68
2022/09/04 11:52:38;;;;;;;2.70;2.20;;;25.20;92.40;;;;;;5040665;28;20227;-68
2022/09/04 11:55:27;;;;;;;2.95;2.30;;;25.20;92.50;;;;;;5065364;28;20223;-68
2022/09/04 11:58:36;;;;;;;2.33;2.10;;;25.30;92.70;;;;;;5069649;28;20200;-68
2022/09/04 12:01:28;;;;;;;2.65;2.28;;;25.40;92.10;;;;;;5060588;28;20227;-68
2022/09/04 12:04:24;;;;;;;1.80;1.70;;;25.50;91.70;;;;;;5069558;28;20192;-68
2022/09/04 12:07:21;;;;;;;3.63;1.90;;;25.60;91.40;;;;;;5056252;28;20223;-68
2022/09/04 12:10:13;;;;;;;2.85;1.90;;;25.60;91.50;;;;;;5029598;28;20193;-67
2022/09/04 12:12:50;;;;;;;1.90;1.80;;;25.70;90.60;;;;;;5029160;28;20203;-67
2022/09/04 12:15:43;;;;;;;5.65;2.10;;;25.70;90.90;;;;;;5028796;28;20584;-67
2022/09/04 12:18:33;;;;;;;5.97;2.05;;;25.80;91.70;;;;;;5028649;28;20209;-67
2022/09/04 12:21:36;;;;;;;2.00;1.90;;;26.10;91.70;;;;;;5040406;28;20582;-68
2022/09/04 12:24:31;;;;;;;2.13;2.03;;;26.10;91.20;;;;;;5051807;28;20211;-67
2022/09/04 12:27:27;;;;;;;3.38;1.88;;;26.10;90.50;;;;;;5036829;28;20205;-67
2022/09/04 12:30:06;;;;;;;1.75;1.65;;;26.10;90.10;;;;;;5048545;28;20196;-67
2022/09/04 12:33:06;;;;;;;2.15;1.95;;;26.20;90.10;;;;;;5048357;28;20723;-67
2022/09/04 12:36:13;;;;;;;2.20;2.10;;;26.40;91.00;;;;;;5039371;28;20250;-67
2022/09/04 12:39:10;;;;;;;3.38;2.08;;;26.40;90.40;;;;;;5048429;28;20196;-67
2022/09/04 12:41:43;;;;;;;2.55;2.35;;;26.70;90.40;;;;;;5046076;28;20212;-67
2022/09/04 12:44:16;;;;;;;1.98;1.88;;;26.80;90.10;;;;;;5043676;28;20200;-67
2022/09/04 12:47:00;;;;;;;3.30;2.38;;;26.70;89.00;;;;;;5053016;28;20204;-68
2022/09/04 12:49:48;;;;;;;2.63;1.88;;;26.70;89.70;;;;;;5049718;28;20782;-68
2022/09/04 12:52:30;;;;;;;1.98;1.80;;;26.80;90.10;;;;;;5048009;28;20243;-68
2022/09/04 12:55:09;;;;;;;1.77;1.67;;;26.90;90.10;;;;;;5048262;28;20226;-68
2022/09/04 12:57:47;;;;;;;3.17;1.98;;;27.00;89.90;;;;;;5048331;28;20192;-68
2022/09/04 13:00:16;;;;;;;5.30;1.90;;;27.10;88.90;;;;;;5047667;28;20220;-68
2022/09/04 13:03:02;;;;;;;2.53;1.90;;;27.20;90.20;;;;;;5048143;28;20261;-68
2022/09/04 13:05:49;;;;;;;3.75;2.15;;;27.30;88.10;;;;;;5048354;28;20200;-68
2022/09/04 13:08:27;;;;;;;2.30;2.10;;;27.40;88.30;;;;;;5047845;28;20192;-68
2022/09/04 13:11:01;;;;;;;2.33;2.03;;;27.50;88.90;;;;;;5048240;28;20207;-68
2022/09/04 13:13:38;;;;;;;2.53;2.30;;;27.60;88.60;;;;;;5048092;28;20192;-68
2022/09/04 13:16:19;;;;;;;2.05;1.73;;;27.40;87.20;;;;;;5046644;28;20240;-68
2022/09/04 13:19:00;;;;;;;2.72;2.10;;;27.50;87.50;;;;;;5047984;28;20200;-69
2022/09/04 13:21:54;;;;;;;2.08;1.98;;;27.50;87.70;;;;;;5048030;28;20588;-68
2022/09/04 13:24:34;;;;;;;2.35;2.20;;;27.70;89.90;;;;;;5047140;28;20693;-69
2022/09/04 13:27:20;;;;;;;5.95;2.50;;;27.80;89.60;;;;;;5047487;28;20638;-68
2022/09/04 13:30:00;;;;;;;2.47;2.10;;;27.90;89.40;;;;;;5046079;28;20219;-68
2022/09/04 13:33:16;;;;;;;7.20;2.38;;;28.00;88.60;;;;;;5045287;28;20710;-68
2022/09/04 13:36:01;;;;;;;2.90;2.20;;;28.10;88.40;;;;;;5016423;28;20354;-68
2022/09/04 13:38:55;;;;;;;2.53;2.40;;;28.20;87.90;;;;;;5043225;28;20193;-68
2022/09/04 13:41:54;;;;;;;2.03;1.92;;;28.20;87.40;;;;;;5044888;28;20208;-69
2022/09/04 13:44:49;;;;;;;3.30;2.47;;;28.30;87.90;;;;;;5045313;28;20215;-68
2022/09/04 13:47:21;;;;;;;2.20;2.10;;;28.40;87.70;;;;;;5044422;28;20693;-68
2022/09/04 13:49:52;;;;;;;2.30;2.20;;;28.40;88.20;;;;;;5045372;28;20196;-68
2022/09/04 13:52:26;;;;;;;4.55;2.00;;;28.50;87.90;;;;;;5044567;28;20623;-68
2022/09/04 13:54:59;;;;;;;2.47;2.38;;;28.30;87.40;;;;;;5044879;28;20232;-68
2022/09/04 13:57:29;;;;;;;2.50;2.25;;;28.20;87.10;;;;;;5044904;28;20200;-68
2022/09/04 14:00:01;;;;;;;4.30;2.20;;;28.20;87.10;;;;;;5045526;28;20236;-68
2022/09/04 14:02:30;;;;;;;3.38;1.92;;;28.30;86.10;;;;;;5045570;28;20293;-68
2022/09/04 14:05:03;;;;;;;2.28;1.88;;;28.50;86.40;;;;;;5045450;28;20227;-68
2022/09/04 14:07:34;;;;;;;4.80;2.08;;;28.50;85.60;;;;;;5045281;28;20619;-68
2022/09/04 14:10:04;;;;;;;2.90;2.25;;;28.50;84.70;;;;;;5045201;28;20208;-68
2022/09/04 14:12:51;;;;;;;22.20;3.83;;;28.70;85.60;;;;;;5045032;28;20192;-68
2022/09/04 14:15:39;;;;;;;3.08;2.15;;;28.90;85.00;;;;;;5026678;28;20212;-68
2022/09/04 14:18:22;;;;;;;3.58;2.10;;;28.80;84.10;;;;;;5024795;28;20239;-66
2022/09/04 14:20:56;;;;;;;3.85;2.15;;;28.80;84.20;;;;;;5039953;28;20889;-66
2022/09/04 14:23:32;;;;;;;3.50;2.88;;;28.80;84.40;;;;;;5046840;28;20214;-66